Time;durP1;ratioP1;P1;durP2;ratioP2;P2;SDS_P1;SDS_P2;PMS_P1;PMS_P2;Temp;Humidity;BMP_temperature;BMP_pressure;BME280_temperature;BME280_humidity;BME280_pressure;Samples;Min_cycle;Max_cycle;Signal;HPM_P1;HPM_P2
2023/04/16 00:01:22;;;;;;;6.23;5.63;;;7.50;99.90;6.70;100505;;;;583050;242;24060;-80
2023/04/16 00:03:50;;;;;;;9.17;6.13;;;7.50;99.90;6.70;100508;;;;583325;242;24052;-79
2023/04/16 00:06:18;;;;;;;6.37;5.70;;;7.50;99.90;6.70;100501;;;;583072;242;24068;-76
2023/04/16 00:08:46;;;;;;;8.50;5.80;;;7.50;99.90;6.70;100501;;;;584175;241;24069;-79
2023/04/16 00:11:17;;;;;;;5.60;5.03;;;7.50;99.90;6.70;100505;;;;584274;242;24078;-76
2023/04/16 00:13:42;;;;;;;9.27;5.20;;;7.50;99.90;6.70;100501;;;;583225;242;24118;-76
2023/04/16 00:16:09;;;;;;;8.30;5.30;;;7.50;99.90;6.70;100497;;;;583734;242;24087;-79
2023/04/16 00:18:38;;;;;;;6.97;5.40;;;7.50;99.90;6.70;100510;;;;583460;242;24107;-78
2023/04/16 00:21:05;;;;;;;8.27;5.80;;;7.50;99.90;6.70;100503;;;;583452;242;24049;-78
2023/04/16 00:23:33;;;;;;;6.77;5.07;;;7.50;99.90;6.60;100498;;;;583132;242;24070;-75
2023/04/16 00:26:01;;;;;;;5.30;4.60;;;7.50;99.90;6.70;100496;;;;580890;242;24076;-76
2023/04/16 00:28:29;;;;;;;6.03;4.57;;;7.50;99.90;6.70;100506;;;;583011;242;24081;-79
2023/04/16 00:30:57;;;;;;;5.37;4.83;;;7.50;99.90;6.60;100507;;;;582974;242;24046;-79
2023/04/16 00:33:25;;;;;;;7.03;4.83;;;7.50;99.90;6.70;100504;;;;580836;242;24067;-80
2023/04/16 00:35:53;;;;;;;6.40;4.63;;;7.50;99.90;6.70;100505;;;;583010;242;24064;-78
2023/04/16 00:38:21;;;;;;;6.73;5.20;;;7.50;99.90;6.60;100502;;;;583491;242;24085;-80
2023/04/16 00:40:48;;;;;;;6.53;5.30;;;7.50;99.90;6.60;100500;;;;587966;242;24052;-79
2023/04/16 00:43:24;;;;;;;5.27;4.27;;;7.50;99.90;6.60;100499;;;;583587;242;24040;-78
2023/04/16 00:45:50;;;;;;;5.53;4.53;;;7.40;99.90;6.60;100506;;;;583176;242;24056;-79
2023/04/16 00:48:18;;;;;;;6.17;4.83;;;7.40;99.90;6.60;100511;;;;583097;242;24058;-79
2023/04/16 00:50:49;;;;;;;5.83;5.23;;;7.40;99.90;6.60;100505;;;;583107;240;24072;-80
2023/04/16 00:53:17;;;;;;;8.00;5.60;;;7.40;99.90;6.60;100507;;;;582891;242;24113;-79
2023/04/16 00:55:42;;;;;;;8.53;5.97;;;7.40;99.90;6.60;100513;;;;582685;242;24060;-80
2023/04/16 00:58:10;;;;;;;5.20;4.60;;;7.40;99.90;6.60;100507;;;;582855;242;24060;-76
2023/04/16 01:00:41;;;;;;;5.47;4.97;;;7.40;99.90;6.60;100520;;;;582640;242;24047;-77
2023/04/16 01:03:06;;;;;;;5.87;5.20;;;7.40;99.90;6.60;100514;;;;587714;242;24100;-77
2023/04/16 01:05:34;;;;;;;5.70;4.87;;;7.40;99.90;6.50;100512;;;;582583;242;24060;-77
2023/04/16 01:08:01;;;;;;;10.03;5.13;;;7.40;99.90;6.50;100507;;;;582718;242;24056;-80
2023/04/16 01:10:29;;;;;;;7.33;5.23;;;7.30;99.90;6.50;100507;;;;580478;242;24112;-76
2023/04/16 01:12:58;;;;;;;6.33;5.17;;;7.30;99.90;6.50;100513;;;;582537;242;24134;-79
2023/04/16 01:15:26;;;;;;;8.10;5.60;;;7.30;99.90;6.50;100516;;;;582623;242;24061;-79
2023/04/16 01:17:54;;;;;;;7.90;5.67;;;7.30;99.90;6.40;100517;;;;582557;242;24086;-75
2023/04/16 01:20:22;;;;;;;10.50;6.27;;;7.20;99.90;6.40;100507;;;;583715;241;24047;-79
2023/04/16 01:22:50;;;;;;;6.67;5.03;;;7.20;99.90;6.40;100508;;;;583855;242;24110;-80
2023/04/16 01:25:18;;;;;;;5.57;5.07;;;7.20;99.90;6.40;100511;;;;583639;242;24106;-82
2023/04/16 01:27:45;;;;;;;10.80;6.37;;;7.20;99.90;6.40;100506;;;;583445;242;24119;-81
2023/04/16 01:30:13;;;;;;;5.63;5.00;;;7.20;99.90;6.40;100510;;;;582930;242;24145;-80
2023/04/16 01:32:45;;;;;;;7.30;5.63;;;7.10;99.90;6.40;100511;;;;583275;242;24046;-79
2023/04/16 01:35:09;;;;;;;8.30;6.43;;;7.10;99.90;6.30;100515;;;;591978;242;24135;-80
2023/04/16 01:37:37;;;;;;;8.37;6.03;;;7.10;99.90;6.30;100515;;;;583163;242;24044;-79
2023/04/16 01:40:05;;;;;;;6.60;6.00;;;7.10;99.90;6.30;100513;;;;583204;242;25103;-80
2023/04/16 01:42:33;;;;;;;10.63;6.70;;;7.10;99.90;6.30;100511;;;;583058;242;24104;-78
2023/04/16 01:45:02;;;;;;;7.03;5.60;;;7.10;99.90;6.30;100507;;;;583262;242;24122;-76
2023/04/16 01:47:33;;;;;;;8.47;6.20;;;7.10;99.90;6.30;100508;;;;583127;242;24055;-75
2023/04/16 01:49:57;;;;;;;7.70;6.87;;;7.10;99.90;6.30;100511;;;;582786;242;24073;-76
2023/04/16 01:52:25;;;;;;;7.13;5.93;;;7.10;99.90;6.30;100509;;;;583182;242;24059;-76
2023/04/16 01:54:53;;;;;;;7.90;6.20;;;7.10;99.90;6.30;100508;;;;587526;242;24042;-79
2023/04/16 01:57:21;;;;;;;7.53;5.53;;;7.10;99.90;6.30;100513;;;;582905;242;24084;-80
2023/04/16 01:59:49;;;;;;;6.60;5.13;;;7.20;99.90;6.40;100512;;;;582468;242;24107;-80
2023/04/16 02:02:17;;;;;;;6.70;5.37;;;7.20;99.90;6.30;100507;;;;582613;242;24102;-80
2023/04/16 02:04:45;;;;;;;7.10;5.77;;;7.20;99.90;6.30;100515;;;;582579;242;24056;-77
2023/04/16 02:07:13;;;;;;;8.90;6.17;;;7.20;99.90;6.30;100515;;;;582580;242;24055;-76
2023/04/16 02:09:41;;;;;;;5.73;4.50;;;7.20;99.90;6.30;100511;;;;582530;242;24093;-77
2023/04/16 02:12:10;;;;;;;5.33;4.83;;;7.10;99.90;6.30;100515;;;;560108;252;24185;-77
2023/04/16 02:14:36;;;;;;;8.47;6.33;;;7.10;99.90;6.30;100514;;;;586216;242;24111;-79
2023/04/16 02:17:04;;;;;;;5.67;5.10;;;7.10;99.90;6.20;100507;;;;582729;242;24102;-78
2023/04/16 02:19:32;;;;;;;9.20;6.17;;;7.00;99.90;6.20;100501;;;;582943;242;24056;-79
2023/04/16 02:22:03;;;;;;;7.50;6.13;;;7.00;99.90;6.10;100504;;;;582702;242;24073;-75
2023/04/16 02:24:31;;;;;;;10.03;6.77;;;6.90;99.90;6.00;100503;;;;582992;242;24093;-77
2023/04/16 02:26:59;;;;;;;8.90;6.93;;;6.80;99.90;6.00;100505;;;;582603;242;24070;-76
2023/04/16 02:29:27;;;;;;;10.17;7.47;;;6.80;99.90;6.00;100510;;;;582561;242;24048;-75
2023/04/16 02:31:54;;;;;;;10.77;9.33;;;6.80;99.90;6.00;100514;;;;583718;241;24055;-79
2023/04/16 02:34:22;;;;;;;10.93;9.17;;;6.80;99.90;6.00;100516;;;;583889;242;24061;-80
2023/04/16 02:36:50;;;;;;;11.67;10.10;;;6.70;99.90;5.90;100507;;;;583717;242;24044;-80
2023/04/16 02:39:19;;;;;;;11.63;9.37;;;6.70;99.90;5.90;100511;;;;583796;242;25097;-79
2023/04/16 02:41:48;;;;;;;10.47;9.43;;;6.70;99.90;5.90;100515;;;;583141;242;24033;-79
2023/04/16 02:44:16;;;;;;;10.00;8.93;;;6.60;99.90;5.90;100517;;;;583359;242;24057;-78
2023/04/16 02:46:43;;;;;;;11.70;9.70;;;6.70;99.90;5.90;100509;;;;583259;242;24073;-80
2023/04/16 02:49:11;;;;;;;12.70;11.03;;;6.70;99.90;5.90;100517;;;;583562;242;24106;-74
2023/04/16 02:51:39;;;;;;;12.37;10.60;;;6.60;99.90;5.80;100517;;;;583687;242;24040;-77
2023/04/16 02:54:07;;;;;;;13.43;10.47;;;6.60;99.90;5.80;100508;;;;583538;242;24136;-77
2023/04/16 02:56:36;;;;;;;12.70;10.60;;;6.60;99.90;5.80;100514;;;;583043;242;24054;-77
2023/04/16 02:59:04;;;;;;;11.53;9.97;;;6.60;99.90;5.80;100520;;;;582897;242;24053;-81
2023/04/16 03:01:32;;;;;;;14.63;10.70;;;6.60;99.90;5.80;100522;;;;587762;242;24104;-79
2023/04/16 03:04:00;;;;;;;11.87;10.27;;;6.60;99.90;5.80;100523;;;;583510;242;24052;-80
2023/04/16 03:06:28;;;;;;;10.13;8.53;;;6.60;99.90;5.80;100522;;;;583582;242;25118;-79
2023/04/16 03:08:56;;;;;;;9.90;7.77;;;6.60;99.90;5.80;100528;;;;583185;242;24078;-79
2023/04/16 03:11:24;;;;;;;18.47;8.40;;;6.60;99.90;5.80;100522;;;;583078;242;24082;-76
2023/04/16 03:13:52;;;;;;;14.37;8.67;;;6.60;99.90;5.80;100526;;;;583337;242;24095;-76
2023/04/16 03:16:21;;;;;;;15.93;10.63;;;6.60;99.90;5.80;100523;;;;578091;242;35210;-76
2023/04/16 03:18:52;;;;;;;14.57;12.27;;;6.50;99.90;5.80;100525;;;;587162;242;41106;-76
2023/04/16 03:21:16;;;;;;;12.93;9.13;;;6.60;99.90;5.80;100526;;;;582799;242;24065;-79
2023/04/16 03:23:44;;;;;;;7.27;6.20;;;6.60;99.90;5.80;100533;;;;583540;242;24048;-81
2023/04/16 03:26:12;;;;;;;10.10;7.70;;;6.60;99.90;5.80;100530;;;;583531;242;24093;-80
2023/04/16 03:28:40;;;;;;;8.53;6.00;;;6.60;99.90;5.80;100530;;;;583454;242;24037;-81
2023/04/16 03:31:08;;;;;;;14.30;8.37;;;6.60;99.90;5.70;100526;;;;583453;242;24060;-79
2023/04/16 03:33:36;;;;;;;9.17;6.70;;;6.50;99.90;5.70;100527;;;;583445;242;24053;-80
2023/04/16 03:36:04;;;;;;;11.23;8.40;;;6.50;99.90;5.70;100524;;;;583259;242;24049;-79
2023/04/16 03:38:32;;;;;;;12.17;7.70;;;6.50;99.90;5.80;100531;;;;583347;242;24059;-81
2023/04/16 03:41:00;;;;;;;15.67;8.40;;;6.50;99.90;5.70;100531;;;;583573;242;24046;-79
2023/04/16 03:43:28;;;;;;;10.07;7.90;;;6.50;99.90;5.70;100530;;;;584104;241;24073;-79
2023/04/16 03:45:56;;;;;;;10.73;8.40;;;6.50;99.90;5.70;100540;;;;584348;242;24126;-79
2023/04/16 03:48:24;;;;;;;13.73;8.27;;;6.50;99.90;5.70;100543;;;;584282;242;24075;-80
2023/04/16 03:50:52;;;;;;;12.40;8.57;;;6.50;99.90;5.70;100538;;;;584261;242;24052;-81
2023/04/16 03:53:20;;;;;;;15.40;9.17;;;6.50;99.90;5.70;100546;;;;584078;242;24084;-80
2023/04/16 03:55:51;;;;;;;11.00;8.10;;;6.50;99.90;5.70;100546;;;;583713;242;24068;-80
2023/04/16 03:58:19;;;;;;;12.83;8.17;;;6.50;99.90;5.80;100539;;;;583315;242;24073;-81
2023/04/16 04:00:47;;;;;;;11.77;8.23;;;6.50;99.90;5.70;100545;;;;583659;242;24118;-77
2023/04/16 04:03:18;;;;;;;13.70;8.63;;;6.50;99.90;5.70;100542;;;;587663;242;24120;-75
2023/04/16 04:05:48;;;;;;;15.23;9.53;;;6.50;99.90;5.80;100547;;;;583428;242;24106;-76
2023/04/16 04:08:14;;;;;;;13.23;9.03;;;6.50;99.90;5.70;100548;;;;582943;242;24164;-77
2023/04/16 04:10:41;;;;;;;12.47;8.10;;;6.50;99.90;5.70;100548;;;;583164;242;24060;-74
2023/04/16 04:13:10;;;;;;;15.73;9.43;;;6.50;99.90;5.70;100554;;;;583195;242;24116;-76
2023/04/16 04:15:38;;;;;;;11.27;8.77;;;6.50;99.90;5.70;100557;;;;583151;242;24050;-75
2023/04/16 04:18:06;;;;;;;17.23;8.60;;;6.50;99.90;5.80;100558;;;;583183;242;24058;-75
2023/04/16 04:20:34;;;;;;;12.00;8.27;;;6.50;99.90;5.80;100561;;;;582991;242;24085;-77
2023/04/16 04:23:03;;;;;;;15.33;9.67;;;6.50;99.90;5.80;100561;;;;582949;242;24050;-76
2023/04/16 04:25:31;;;;;;;10.70;7.00;;;6.50;99.90;5.80;100565;;;;582570;242;24077;-77
2023/04/16 04:27:58;;;;;;;13.23;9.00;;;6.60;99.90;5.80;100567;;;;582990;242;24030;-75
2023/04/16 04:30:27;;;;;;;10.10;7.13;;;6.60;99.90;5.80;100576;;;;583146;242;24078;-79
2023/04/16 04:32:59;;;;;;;13.37;9.10;;;6.50;99.90;5.70;100571;;;;583544;242;24102;-74
2023/04/16 04:35:24;;;;;;;15.97;8.20;;;6.50;99.90;5.70;100567;;;;583159;242;24096;-75
2023/04/16 04:37:52;;;;;;;9.70;6.83;;;6.50;99.90;5.70;100574;;;;583091;242;24056;-75
2023/04/16 04:40:20;;;;;;;12.23;8.63;;;6.50;99.90;5.70;100567;;;;583032;242;24074;-76
2023/04/16 04:42:48;;;;;;;14.17;9.13;;;6.50;99.90;5.70;100575;;;;583026;242;24093;-76
2023/04/16 04:45:17;;;;;;;11.80;8.43;;;6.50;99.90;5.70;100572;;;;582729;242;24054;-75
2023/04/16 04:48:00;;;;;;;15.27;9.67;;;6.50;99.90;5.70;100574;;;;592986;242;24060;-77
2023/04/16 04:50:28;;;;;;;13.50;8.07;;;6.50;99.90;5.70;100574;;;;583095;242;24066;-77
2023/04/16 04:52:56;;;;;;;9.33;6.63;;;6.50;99.90;5.80;100573;;;;582585;242;24081;-76
2023/04/16 04:55:24;;;;;;;11.30;9.13;;;6.50;99.90;5.80;100587;;;;583652;242;24099;-76
2023/04/16 04:57:52;;;;;;;12.63;9.70;;;6.50;99.90;5.70;100578;;;;581607;242;24082;-76
2023/04/16 05:00:23;;;;;;;14.73;9.00;;;6.50;99.90;5.80;100582;;;;583524;242;24071;-77
2023/04/16 05:02:48;;;;;;;10.40;8.30;;;6.50;99.90;5.80;100582;;;;583455;242;24085;-76
2023/04/16 05:05:16;;;;;;;12.77;9.87;;;6.50;99.90;5.80;100580;;;;583165;242;24051;-77
2023/04/16 05:07:44;;;;;;;11.90;7.90;;;6.60;99.90;5.80;100591;;;;583007;242;24057;-76
2023/04/16 05:10:12;;;;;;;12.60;8.37;;;6.60;99.90;5.80;100578;;;;583164;242;24114;-75
2023/04/16 05:12:40;;;;;;;22.97;9.27;;;6.60;99.90;5.70;100580;;;;583112;242;24058;-75
2023/04/16 05:15:11;;;;;;;10.43;8.20;;;6.60;99.90;5.80;100577;;;;583033;242;24045;-77
2023/04/16 05:17:36;;;;;;;15.57;9.00;;;6.60;99.90;5.80;100592;;;;582694;242;24141;-75
2023/04/16 05:20:05;;;;;;;11.57;9.03;;;6.60;99.90;5.80;100593;;;;583316;242;28676;-74
2023/04/16 05:22:32;;;;;;;11.60;9.03;;;6.60;99.90;5.80;100588;;;;582980;242;24070;-76
2023/04/16 05:25:03;;;;;;;12.07;9.13;;;6.60;99.90;5.90;100601;;;;591999;242;24092;-77
2023/04/16 05:27:29;;;;;;;18.93;14.03;;;6.60;99.90;5.90;100606;;;;577886;242;35078;-76
2023/04/16 05:29:57;;;;;;;22.45;15.00;;;6.60;99.90;5.90;100599;;;;578047;242;35147;-78
2023/04/16 05:32:25;;;;;;;17.47;14.83;;;6.70;99.90;5.90;100607;;;;577945;242;35192;-77
2023/04/16 05:34:53;;;;;;;14.07;10.57;;;6.70;99.90;5.90;100602;;;;582959;242;24081;-76
2023/04/16 05:37:20;;;;;;;12.43;8.07;;;6.70;99.90;6.00;100615;;;;583028;242;24061;-77
2023/04/16 05:39:48;;;;;;;12.10;8.20;;;6.80;99.90;6.10;100610;;;;582843;242;24062;-76
2023/04/16 05:42:16;;;;;;;10.17;8.20;;;6.80;99.90;6.10;100611;;;;582918;242;24110;-75
2023/04/16 05:44:44;;;;;;;12.50;7.33;;;6.90;99.90;6.10;100615;;;;583058;242;24049;-76
2023/04/16 05:47:16;;;;;;;11.57;8.03;;;6.90;99.90;6.10;100619;;;;583199;242;24104;-75
2023/04/16 05:49:41;;;;;;;13.27;8.73;;;6.90;99.90;6.20;100615;;;;591702;242;24090;-75
2023/04/16 05:52:09;;;;;;;13.80;8.73;;;6.90;99.90;6.20;100626;;;;583156;242;24102;-75
2023/04/16 05:54:37;;;;;;;12.40;9.73;;;7.00;99.90;6.20;100625;;;;583229;242;24074;-76
2023/04/16 05:57:04;;;;;;;16.73;9.30;;;6.90;99.90;6.20;100619;;;;583427;238;24049;-75
2023/04/16 05:59:33;;;;;;;13.03;9.47;;;6.90;99.90;6.10;100620;;;;582989;242;24060;-76
2023/04/16 06:02:00;;;;;;;15.33;9.80;;;6.90;99.90;6.10;100624;;;;583352;242;24076;-76
2023/04/16 06:04:29;;;;;;;13.07;8.87;;;6.90;99.90;6.10;100626;;;;583263;242;24065;-76
2023/04/16 06:06:56;;;;;;;11.53;9.20;;;6.90;99.90;6.10;100622;;;;584596;242;24087;-75
2023/04/16 06:09:28;;;;;;;16.60;12.83;;;6.90;99.90;6.10;100639;;;;579807;242;35222;-76
2023/04/16 06:11:54;;;;;;;16.43;11.10;;;6.90;99.90;6.10;100624;;;;584092;242;25407;-75
2023/04/16 06:14:21;;;;;;;17.03;8.97;;;6.90;99.90;6.20;100637;;;;584496;242;24072;-76
2023/04/16 06:16:49;;;;;;;11.63;8.17;;;6.90;99.90;6.20;100639;;;;584322;242;24112;-75
2023/04/16 06:19:17;;;;;;;17.93;9.23;;;7.00;99.90;6.20;100635;;;;584623;242;24067;-79
2023/04/16 06:21:45;;;;;;;12.30;9.13;;;7.00;99.90;6.30;100641;;;;584309;242;24060;-76
2023/04/16 06:24:13;;;;;;;9.37;7.90;;;7.10;99.90;6.30;100644;;;;584193;242;24115;-77
2023/04/16 06:26:41;;;;;;;15.07;8.93;;;7.10;99.90;6.30;100641;;;;584171;242;24055;-77
2023/04/16 06:29:09;;;;;;;12.70;9.70;;;7.10;99.90;6.30;100647;;;;583949;242;24049;-79
2023/04/16 06:31:37;;;;;;;14.80;9.67;;;7.10;99.90;6.30;100645;;;;584053;242;24052;-75
2023/04/16 06:34:05;;;;;;;13.33;8.57;;;7.10;99.90;6.40;100646;;;;584035;242;24052;-77
2023/04/16 06:36:32;;;;;;;13.60;8.30;;;7.10;99.90;6.40;100647;;;;583965;242;24044;-78
2023/04/16 06:39:00;;;;;;;14.77;9.47;;;7.10;99.90;6.40;100654;;;;584099;242;24115;-80
2023/04/16 06:41:28;;;;;;;9.80;7.97;;;7.20;99.90;6.40;100647;;;;584029;242;24036;-78
2023/04/16 06:43:58;;;;;;;10.63;7.53;;;7.20;99.90;6.40;100661;;;;583979;242;24066;-81
2023/04/16 06:46:26;;;;;;;10.73;8.00;;;7.20;99.90;6.40;100660;;;;584289;242;24097;-77
2023/04/16 06:48:54;;;;;;;13.10;8.70;;;7.10;99.90;6.40;100662;;;;584041;242;24099;-79
2023/04/16 06:51:22;;;;;;;15.03;9.77;;;7.10;99.90;6.40;100656;;;;583769;242;24068;-77
2023/04/16 06:53:50;;;;;;;13.40;9.80;;;7.10;99.90;6.40;100657;;;;583582;242;24067;-81
2023/04/16 06:56:18;;;;;;;17.60;9.27;;;7.20;99.90;6.50;100658;;;;583814;242;24055;-82
2023/04/16 06:58:46;;;;;;;14.27;10.90;;;7.20;99.90;6.40;100666;;;;583420;242;24068;-80
2023/04/16 07:01:14;;;;;;;17.37;12.47;;;7.20;99.90;6.40;100661;;;;583708;242;24044;-76
2023/04/16 07:03:43;;;;;;;12.33;9.13;;;7.20;99.90;6.40;100668;;;;580391;247;24078;-78
2023/04/16 07:06:10;;;;;;;11.23;8.43;;;7.10;99.90;6.30;100665;;;;583528;242;24060;-79
2023/04/16 07:08:38;;;;;;;12.90;8.47;;;7.10;99.90;6.30;100671;;;;583590;242;24054;-79
2023/04/16 07:11:06;;;;;;;13.50;8.33;;;7.10;99.90;6.30;100664;;;;588109;242;24044;-79
2023/04/16 07:13:39;;;;;;;13.47;8.27;;;7.10;99.90;6.30;100679;;;;583373;242;24074;-75
2023/04/16 07:16:03;;;;;;;11.97;8.43;;;7.10;99.90;6.40;100677;;;;582997;242;24054;-76
2023/04/16 07:18:31;;;;;;;11.90;7.43;;;7.10;99.90;6.40;100675;;;;584378;242;24049;-76
2023/04/16 07:20:59;;;;;;;11.23;8.40;;;7.10;99.90;6.40;100670;;;;584324;242;24076;-76
2023/04/16 07:23:27;;;;;;;11.60;8.80;;;7.20;99.90;6.50;100675;;;;583967;242;24056;-75
2023/04/16 07:25:55;;;;;;;13.50;8.13;;;7.20;99.90;6.60;100679;;;;584033;242;24063;-75
2023/04/16 07:28:24;;;;;;;13.23;7.77;;;7.30;99.90;6.60;100683;;;;584147;242;24101;-78
2023/04/16 07:30:51;;;;;;;13.53;8.40;;;7.40;99.90;6.70;100681;;;;584799;242;24125;-80
2023/04/16 07:33:19;;;;;;;9.10;7.30;;;7.40;99.90;6.70;100678;;;;583959;242;24086;-75
2023/04/16 07:35:47;;;;;;;10.63;7.73;;;7.50;99.90;6.80;100685;;;;583877;242;24082;-75
2023/04/16 07:38:15;;;;;;;10.70;7.40;;;7.50;99.90;6.80;100692;;;;583618;242;24057;-77
2023/04/16 07:40:47;;;;;;;11.30;7.43;;;7.60;99.90;6.90;100686;;;;583682;242;24084;-80
2023/04/16 07:43:14;;;;;;;9.87;8.23;;;7.70;99.90;7.00;100693;;;;583129;242;24060;-77
2023/04/16 07:45:39;;;;;;;10.77;7.73;;;7.70;99.90;7.00;100692;;;;580544;242;24108;-79
2023/04/16 07:48:07;;;;;;;11.23;8.70;;;7.80;99.90;7.00;100697;;;;587610;242;24060;-77
2023/04/16 07:50:34;;;;;;;8.97;7.53;;;7.80;99.90;7.10;100698;;;;583692;242;24080;-77
2023/04/16 07:53:07;;;;;;;8.80;7.17;;;7.80;99.90;7.10;100697;;;;593091;242;24065;-79
2023/04/16 07:55:30;;;;;;;8.43;6.80;;;7.90;99.90;7.20;100702;;;;583206;242;24057;-76
2023/04/16 07:57:58;;;;;;;8.97;6.67;;;8.00;99.90;7.30;100702;;;;582879;242;24075;-78
2023/04/16 08:00:26;;;;;;;9.03;5.77;;;8.00;99.90;7.30;100705;;;;582681;242;24084;-75
2023/04/16 08:02:54;;;;;;;5.80;5.17;;;8.10;99.90;7.40;100710;;;;582596;242;24056;-76
2023/04/16 08:05:23;;;;;;;8.47;6.37;;;8.20;99.90;7.50;100700;;;;582593;242;24069;-75
2023/04/16 08:07:51;;;;;;;6.27;4.80;;;8.20;99.90;7.60;100704;;;;582713;242;24064;-75
2023/04/16 08:10:19;;;;;;;8.73;7.13;;;8.30;99.90;7.90;100713;;;;582544;242;24156;-75
2023/04/16 08:12:46;;;;;;;7.10;5.63;;;8.60;99.90;8.20;100721;;;;582863;242;24055;-76
2023/04/16 08:15:14;;;;;;;7.03;6.33;;;8.90;99.90;8.50;100718;;;;583135;242;24052;-78
2023/04/16 08:17:42;;;;;;;7.17;6.10;;;9.20;99.90;8.90;100717;;;;583397;242;24127;-81
2023/04/16 08:20:10;;;;;;;6.07;5.23;;;9.60;99.90;9.40;100715;;;;583162;242;24071;-78
2023/04/16 08:22:39;;;;;;;7.33;5.40;;;10.50;99.90;9.70;100725;;;;588156;242;24062;-80
2023/04/16 08:25:11;;;;;;;6.43;5.63;;;10.50;99.90;10.10;100722;;;;582988;242;24054;-78
2023/04/16 08:27:35;;;;;;;5.20;4.80;;;11.00;99.90;10.80;100732;;;;582100;242;24054;-79
2023/04/16 08:30:03;;;;;;;6.43;5.00;;;11.60;99.90;11.30;100730;;;;584016;242;24076;-78
2023/04/16 08:32:31;;;;;;;5.43;4.93;;;12.30;99.90;11.80;100741;;;;583906;242;24099;-79
2023/04/16 08:35:03;;;;;;;4.97;4.57;;;12.80;99.90;12.40;100744;;;;583501;242;24147;-81
2023/04/16 08:37:27;;;;;;;4.73;4.27;;;13.30;99.90;12.90;100738;;;;592087;240;24065;-79
2023/04/16 08:39:55;;;;;;;3.57;3.33;;;13.90;99.90;13.40;100746;;;;583216;242;24053;-76
2023/04/16 08:42:32;;;;;;;3.60;3.40;;;14.60;99.90;13.60;100733;;;;583342;242;24052;-79
2023/04/16 08:45:09;;;;;;;3.70;3.40;;;14.60;99.90;13.80;100738;;;;580011;242;24092;-79
2023/04/16 08:47:37;;;;;;;2.57;2.37;;;14.80;99.90;14.20;100735;;;;583059;242;24085;-77
2023/04/16 08:50:05;;;;;;;2.37;2.20;;;15.10;99.90;14.60;100733;;;;583698;242;24054;-78
2023/04/16 08:52:32;;;;;;;2.40;2.30;;;15.50;99.90;14.80;100722;;;;583598;242;24056;-78
2023/04/16 08:55:03;;;;;;;2.57;2.37;;;15.80;99.90;15.20;100737;;;;583674;242;23125;-77
2023/04/16 08:57:31;;;;;;;2.37;2.23;;;16.10;99.90;15.50;100733;;;;592881;239;24121;-78
2023/04/16 08:59:59;;;;;;;2.10;2.00;;;16.50;99.90;16.00;100737;;;;583576;242;24056;-74
2023/04/16 09:02:27;;;;;;;2.20;2.10;;;17.00;99.90;16.60;100748;;;;583494;242;24054;-79
2023/04/16 09:04:57;;;;;;;2.43;2.23;;;17.50;99.90;17.00;100747;;;;580996;242;24049;-77
2023/04/16 09:07:26;;;;;;;2.03;1.93;;;17.90;99.90;16.80;100746;;;;581720;242;24043;-79
2023/04/16 09:09:54;;;;;;;1.87;1.83;;;18.00;99.90;16.30;100749;;;;582779;242;24049;-77
2023/04/16 09:12:18;;;;;;;2.20;2.10;;;17.70;99.20;16.10;100750;;;;591022;240;24069;-79
2023/04/16 09:14:55;;;;;;;2.50;2.40;;;17.40;99.40;16.00;100750;;;;582520;242;24051;-80
2023/04/16 09:17:20;;;;;;;5.83;3.90;;;17.20;99.90;15.90;100754;;;;582254;242;24054;-79
2023/04/16 09:19:48;;;;;;;5.77;4.53;;;17.10;99.90;16.10;100755;;;;582607;242;24045;-78
2023/04/16 09:22:17;;;;;;;6.07;3.20;;;17.10;99.90;16.10;100766;;;;582791;242;24061;-77
2023/04/16 09:24:45;;;;;;;3.73;2.60;;;17.00;99.90;15.80;100768;;;;582583;242;24063;-77
2023/04/16 09:27:13;;;;;;;3.13;2.93;;;16.90;99.90;15.50;100768;;;;582642;242;24039;-79
2023/04/16 09:29:44;;;;;;;2.43;2.23;;;16.70;99.90;15.10;100771;;;;581279;242;24071;-80
2023/04/16 09:32:09;;;;;;;3.87;3.30;;;16.30;99.90;14.80;100780;;;;582255;242;24111;-79
2023/04/16 09:35:02;;;;;;;3.03;2.83;;;16.00;99.90;14.40;100775;;;;582610;242;24062;-77
2023/04/16 09:37:29;;;;;;;2.93;2.73;;;15.60;99.90;14.20;100772;;;;568864;247;24173;-78
2023/04/16 09:39:59;;;;;;;4.43;3.20;;;15.30;99.90;13.60;100776;;;;591126;242;24078;-77
2023/04/16 09:42:33;;;;;;;3.87;2.93;;;14.90;99.90;13.20;100788;;;;584495;242;24040;-75
2023/04/16 09:45:01;;;;;;;3.03;2.73;;;14.50;99.90;13.10;100784;;;;583477;242;24056;-76
2023/04/16 09:47:44;;;;;;;2.80;2.60;;;14.20;99.90;13.10;100788;;;;583192;242;24160;-74
2023/04/16 09:50:14;;;;;;;3.60;2.73;;;14.10;99.90;13.00;100786;;;;580466;242;24049;-75
2023/04/16 09:52:45;;;;;;;2.40;2.30;;;13.90;99.90;12.70;100796;;;;582601;242;24067;-76
2023/04/16 09:55:10;;;;;;;2.20;2.10;;;13.70;99.90;12.70;100799;;;;582933;239;24086;-82
2023/04/16 09:57:38;;;;;;;2.83;2.63;;;13.60;99.90;12.80;100790;;;;582788;242;24140;-77
2023/04/16 10:00:06;;;;;;;3.10;2.80;;;13.70;99.90;12.90;100790;;;;583032;242;24094;-77
2023/04/16 10:02:34;;;;;;;2.57;2.30;;;13.80;99.90;13.00;100803;;;;582888;242;24097;-79
2023/04/16 10:05:02;;;;;;;2.60;2.40;;;13.90;99.90;12.90;100799;;;;582938;242;24067;-79
2023/04/16 10:07:33;;;;;;;3.43;2.87;;;13.90;99.90;12.90;100801;;;;586487;242;24120;-78
2023/04/16 10:10:08;;;;;;;3.43;3.03;;;13.90;99.90;12.50;100800;;;;591754;242;24061;-77
2023/04/16 10:12:33;;;;;;;3.93;2.93;;;13.60;99.90;12.20;100808;;;;591406;242;24106;-80
2023/04/16 10:15:01;;;;;;;3.20;2.90;;;13.30;99.90;11.80;100803;;;;583022;242;24076;-75
2023/04/16 10:17:29;;;;;;;3.37;3.07;;;12.90;99.90;11.60;100800;;;;582849;242;24161;-75
2023/04/16 10:19:57;;;;;;;2.60;2.40;;;12.70;99.90;11.40;100799;;;;582703;242;24075;-76
2023/04/16 10:22:27;;;;;;;3.20;2.70;;;12.50;99.90;11.30;100806;;;;582672;242;24099;-78
2023/04/16 10:24:52;;;;;;;2.40;2.20;;;12.30;99.90;11.40;100799;;;;582609;242;24238;-79
2023/04/16 10:27:24;;;;;;;2.93;2.17;;;12.30;99.90;11.50;100800;;;;582547;242;24050;-76
2023/04/16 10:29:48;;;;;;;2.43;2.33;;;12.40;99.90;11.70;100804;;;;582362;242;24079;-78
2023/04/16 10:32:19;;;;;;;2.67;2.47;;;12.50;99.90;11.80;100799;;;;582782;242;24052;-76
2023/04/16 10:34:44;;;;;;;3.23;2.83;;;12.60;99.90;11.90;100806;;;;582538;242;24089;-76
2023/04/16 10:37:12;;;;;;;3.47;2.80;;;12.80;99.90;11.90;100804;;;;581328;242;24050;-76
2023/04/16 10:39:40;;;;;;;3.20;2.60;;;12.80;99.90;11.90;100804;;;;582842;242;24093;-76
2023/04/16 10:42:11;;;;;;;2.60;2.40;;;12.80;99.90;11.90;100810;;;;582724;242;24142;-77
2023/04/16 10:44:37;;;;;;;3.23;2.20;;;12.90;99.90;12.00;100824;;;;582661;242;24091;-78
2023/04/16 10:47:11;;;;;;;2.50;2.30;;;12.80;99.90;12.00;100816;;;;582743;242;24105;-80
2023/04/16 10:49:42;;;;;;;2.67;2.47;;;12.90;99.90;12.10;100814;;;;582261;242;24107;-76
2023/04/16 10:52:15;;;;;;;2.60;2.40;;;13.00;99.90;12.10;100823;;;;582645;241;24086;-78
2023/04/16 10:54:40;;;;;;;2.67;2.27;;;13.10;99.90;12.20;100828;;;;583738;242;24052;-75
2023/04/16 10:57:09;;;;;;;2.87;2.20;;;13.10;99.90;12.20;100830;;;;593372;238;24079;-76
2023/04/16 10:59:41;;;;;;;3.10;2.33;;;13.10;99.90;12.30;100820;;;;583549;242;24076;-76
2023/04/16 11:02:17;;;;;;;4.33;2.67;;;13.20;99.90;12.20;100838;;;;583177;242;24091;-76
2023/04/16 11:04:45;;;;;;;5.20;4.60;;;13.20;99.90;12.30;100836;;;;583286;242;24125;-78
2023/04/16 11:07:13;;;;;;;3.37;3.17;;;13.20;99.90;12.30;100844;;;;591969;242;24085;-78
2023/04/16 11:09:48;;;;;;;2.37;2.27;;;13.20;99.90;12.20;100845;;;;583282;242;24084;-76
2023/04/16 11:12:15;;;;;;;2.50;2.30;;;13.10;99.90;12.10;100850;;;;581662;242;24094;-78
2023/04/16 11:14:43;;;;;;;3.03;2.73;;;13.00;99.90;12.00;100844;;;;582667;242;24128;-75
2023/04/16 11:17:14;;;;;;;4.63;2.57;;;12.90;99.90;12.00;100848;;;;582980;242;24080;-78
2023/04/16 11:19:40;;;;;;;2.50;2.30;;;12.80;99.90;11.90;100854;;;;582976;242;24076;-77
2023/04/16 11:22:11;;;;;;;3.03;2.83;;;12.80;99.90;12.00;100851;;;;582985;242;24133;-76